Time;durP1;ratioP1;P1;durP2;ratioP2;P2;SDS_P1;SDS_P2;PMS_P1;PMS_P2;Temp;Humidity;BMP_temperature;BMP_pressure;BME280_temperature;BME280_humidity;BME280_pressure;Samples;Min_cycle;Max_cycle;Signal;HPM_P1;HPM_P2
2024/04/13 07:05:35;;;;;;;15.00;7.80;;;;;;;13.97;65.99;99935.21;107129;1257;98125;-82
2024/04/13 07:09:08;;;;;;;;;;;;;;;;;;;;;
2024/04/13 07:12:11;;;;;;;11.60;7.20;;;;;;;13.99;66.01;99942.02;108262;1239;97973;-82
2024/04/13 07:15:45;;;;;;;16.60;8.70;;;;;;;14.02;66.09;99944.87;109470;1237;109235;-81
2024/04/13 07:19:17;;;;;;;;;;;;;;;;;;;;;
2024/04/13 07:22:54;;;;;;;;;;;;;;;;;;;;;
2024/04/13 07:26:45;;;;;;;11.80;7.90;;;;;;;14.22;66.17;99941.44;108450;1238;111709;-83
2024/04/13 07:29:12;;;;;;;11.70;6.80;;;;;;;14.30;66.09;99941.88;108065;1231;97990;-77
2024/04/13 07:31:38;;;;;;;7.90;5.80;;;;;;;14.36;66.15;99940.77;108462;1232;98459;-78
2024/04/13 07:34:05;;;;;;;10.80;6.40;;;;;;;14.43;66.15;99937.20;108970;1234;98832;-80
2024/04/13 07:36:37;;;;;;;13.90;7.60;;;;;;;14.51;66.17;99933.89;110757;1234;97959;-77
2024/04/13 07:39:04;;;;;;;12.00;7.60;;;;;;;14.59;66.15;99929.19;108409;1231;110621;-70
2024/04/13 07:41:31;;;;;;;14.30;7.60;;;;;;;14.70;66.15;99926.98;108587;1231;98421;-70
2024/04/13 07:43:57;;;;;;;13.20;7.20;;;;;;;14.81;66.20;99923.29;108747;1241;98004;-72
2024/04/13 07:46:25;;;;;;;9.70;6.30;;;;;;;14.96;66.17;99919.51;108807;1234;98010;-71
2024/04/13 07:48:51;;;;;;;10.30;7.50;;;;;;;15.10;66.04;99912.83;109417;1232;97924;-73
2024/04/13 07:51:20;;;;;;;11.80;6.50;;;;;;;15.23;66.09;99913.11;108840;1235;98017;-73
2024/04/13 07:53:49;;;;;;;11.60;6.20;;;;;;;15.39;66.07;99913.84;108526;1246;107476;-75
2024/04/13 08:06:25;;;;;;;8.60;5.90;;;;;;;15.62;65.77;99905.92;109187;1240;111191;-75
2024/04/13 08:09:22;;;;;;;8.10;5.60;;;;;;;15.65;65.67;99905.34;108681;1243;99257;-76
2024/04/13 08:11:54;;;;;;;10.60;6.50;;;;;;;15.69;65.67;99893.00;110454;1232;107683;-75
2024/04/13 08:14:57;;;;;;;12.10;6.40;;;;;;;15.73;65.66;99890.52;108094;1235;97934;-73
2024/04/13 08:17:45;;;;;;;10.40;6.20;;;;;;;15.83;65.73;99890.98;108275;1236;98683;-72
2024/04/13 08:20:19;;;;;;;8.40;6.10;;;;;;;15.91;65.60;99891.09;108222;1237;98951;-74
2024/04/13 08:23:47;;;;;;;;;;;;;;;;;;;;;
2024/04/13 08:27:00;;;;;;;9.40;5.30;;;;;;;16.04;65.45;99884.16;108197;1242;108121;-72
2024/04/13 08:29:31;;;;;;;11.10;5.90;;;;;;;16.10;65.23;99887.43;108607;1231;97875;-72
2024/04/13 08:32:13;;;;;;;12.20;7.30;;;;;;;16.17;65.30;99888.23;108413;1232;99605;-73
2024/04/13 08:38:56;;;;;;;9.30;5.30;;;;;;;16.26;65.05;99882.91;107779;1255;98266;-75
2024/04/13 08:47:41;;;;;;;;;;;;;;;;;;;;;
2024/04/13 08:55:29;;;;;;;8.20;4.80;;;;;;;16.75;64.93;99870.34;105892;1278;111284;-75
2024/04/13 09:00:13;;;;;;;;;;;;;;;;;;;;;
2024/04/13 09:24:54;;;;;;;13.10;5.80;;;;;;;17.81;63.18;99863.98;103526;1282;651543;-72
2024/04/13 09:27:21;;;;;;;9.20;5.30;;;;;;;17.71;62.90;99858.92;106113;1263;301685;-73
2024/04/13 09:29:48;;;;;;;8.90;4.70;;;;;;;17.67;63.03;99851.25;107225;1259;95248;-73
2024/04/13 09:32:27;;;;;;;9.40;4.60;;;;;;;17.67;63.05;99846.18;105695;1256;108064;-73
2024/04/13 09:35:08;;;;;;;8.40;5.10;;;;;;;17.66;62.92;99843.23;105561;1260;95420;-73
2024/04/13 09:37:34;;;;;;;6.90;5.00;;;;;;;17.70;62.72;99848.14;106618;1259;107575;-74
2024/04/13 09:40:11;;;;;;;11.80;5.00;;;;;;;17.75;62.67;99841.40;105246;1257;95231;-72
2024/04/13 09:42:39;;;;;;;8.90;4.50;;;;;;;17.79;62.56;99837.23;107744;1257;94307;-72
2024/04/13 09:45:11;;;;;;;7.20;4.30;;;;;;;17.87;62.65;99838.50;105495;1257;108567;-74
2024/04/13 09:47:42;;;;;;;7.40;5.20;;;;;;;17.94;62.36;99838.39;106419;1256;95613;-74
2024/04/13 09:50:18;;;;;;;6.80;4.10;;;;;;;17.96;62.22;99829.95;105866;1256;107790;-70
2024/04/13 09:52:44;;;;;;;10.50;4.30;;;;;;;18.04;62.20;99831.27;105267;1257;96707;-73
2024/04/13 09:55:11;;;;;;;9.40;4.40;;;;;;;18.15;62.10;99830.77;105894;1254;96619;-73
2024/04/13 09:57:46;;;;;;;37.80;9.20;;;;;;;18.26;61.80;99827.85;107537;1253;96521;-71
2024/04/13 10:04:15;;;;;;;;;;;;;;;;;;;;;
2024/04/13 10:08:18;;;;;;;7.60;4.50;;;;;;;18.48;60.65;99825.77;104842;1275;95837;-74
2024/04/13 10:10:51;;;;;;;12.00;4.90;;;;;;;18.44;60.10;99827.38;104825;1260;95233;-74
2024/04/13 10:13:45;;;;;;;8.90;4.50;;;;;;;18.43;60.21;99824.10;104959;1259;108677;-73
2024/04/13 10:16:39;;;;;;;11.20;5.20;;;;;;;18.44;59.91;99823.65;105080;1254;173492;-77
2024/04/13 10:19:22;;;;;;;6.90;4.80;;;;;;;18.42;59.52;99830.77;105360;1257;109230;-75
2024/04/13 10:22:06;;;;;;;8.90;5.30;;;;;;;18.38;59.45;99827.44;105707;1256;95359;-76
2024/04/13 10:25:03;;;;;;;7.50;4.90;;;;;;;18.33;59.39;99828.09;107137;1259;95142;-76
2024/04/13 10:28:19;;;;;;;12.60;5.00;;;;;;;18.38;59.37;99830.45;105296;1258;108498;-76
2024/04/13 10:31:52;;;;;;;;;;;;;;;;;;;;;
2024/04/13 10:35:29;;;;;;;12.00;5.50;;;;;;;18.47;59.06;99825.69;105465;1255;107829;-76
2024/04/13 10:44:09;;;;;;;;;;;;;;;;;;;;;
2024/04/13 10:53:03;;;;;;;;;;;;;;;;;;;;;
2024/04/13 10:55:56;;;;;;;;;;;;;;;;;;;;;
2024/04/13 11:03:19;;;;;;;11.40;5.30;;;;;;;18.60;56.73;99813.36;103952;1276;95490;-78
2024/04/13 11:06:45;;;;;;;9.80;5.50;;;;;;;18.63;56.25;99807.30;104586;1279;95226;-75
2024/04/13 11:10:24;;;;;;;;;;;;;;;;;;;;;
2024/04/13 11:18:03;;;;;;;;;;;;;;;;;;;;;
2024/04/13 11:21:27;;;;;;;;;;;;;;;;;;;;;
2024/04/13 11:24:49;;;;;;;9.30;4.40;;;;;;;18.82;53.97;99798.50;105258;1266;110259;-76
2024/04/13 11:27:56;;;;;;;9.40;5.30;;;;;;;18.88;54.02;99797.77;104472;1266;95629;-75
2024/04/13 11:30:43;;;;;;;;;;;;;;;;;;;;;
2024/04/13 11:33:53;;;;;;;8.90;4.70;;;;;;;18.79;53.11;99795.77;105278;1261;98033;-76
2024/04/13 11:37:40;;;;;;;;;;;;;;;;;;;;;
2024/04/13 11:41:30;;;;;;;;;;;;;;;;;;;;;
2024/04/13 11:44:38;;;;;;;7.30;4.90;;;;;;;18.77;52.81;99782.13;105553;1266;96722;-75
2024/04/13 11:52:22;;;;;;;;;;;;;;;;;;;;;
2024/04/13 11:55:24;;;;;;;;;;;;;;;;;;;;;
